createdAt,value
2022-12-15T00:00:54.232Z,-3.19
2022-12-15T00:01:54.208Z,-3.10
2022-12-15T00:02:54.277Z,-3.06
2022-12-15T00:03:54.176Z,-2.99
2022-12-15T00:04:54.138Z,-3.02
2022-12-15T00:05:54.132Z,-3.12
2022-12-15T00:06:54.173Z,-3.17
2022-12-15T00:07:54.099Z,-3.07
2022-12-15T00:08:54.087Z,-3.12
2022-12-15T00:09:54.082Z,-3.10
2022-12-15T00:10:54.079Z,-3.10
2022-12-15T00:11:54.054Z,-3.13
2022-12-15T00:12:54.034Z,-3.17
2022-12-15T00:13:54.029Z,-3.16
2022-12-15T00:14:54.014Z,-3.10
2022-12-15T00:15:54.213Z,-3.04
2022-12-15T00:16:53.982Z,-3.15
2022-12-15T00:17:53.975Z,-3.19
2022-12-15T00:18:53.951Z,-3.22
2022-12-15T00:19:53.945Z,-3.16
2022-12-15T00:20:53.930Z,-3.17
2022-12-15T00:21:53.930Z,-3.22
2022-12-15T00:22:53.901Z,-3.22
2022-12-15T00:23:53.895Z,-3.31
2022-12-15T00:24:53.880Z,-3.30
2022-12-15T00:25:53.860Z,-3.30
2022-12-15T00:26:53.852Z,-3.31
2022-12-15T00:27:53.833Z,-3.33
2022-12-15T00:28:53.817Z,-3.31
2022-12-15T00:29:53.811Z,-3.30
2022-12-15T00:30:58.860Z,-3.30
2022-12-15T00:31:53.875Z,-3.45
2022-12-15T00:32:53.770Z,-3.33
2022-12-15T00:33:53.765Z,-3.37
2022-12-15T00:34:53.753Z,-3.35
2022-12-15T00:35:53.732Z,-3.35
2022-12-15T00:36:53.710Z,-3.37
2022-12-15T00:37:53.734Z,-3.35
2022-12-15T00:38:53.698Z,-3.44
2022-12-15T00:39:53.680Z,-3.34
2022-12-15T00:40:53.664Z,-3.33
2022-12-15T00:41:53.660Z,-3.27
2022-12-15T00:42:53.640Z,-3.31
2022-12-15T00:43:53.633Z,-3.31
2022-12-15T00:44:53.613Z,-3.30
2022-12-15T00:45:53.602Z,-3.31
2022-12-15T00:46:53.642Z,-3.35
2022-12-15T00:47:53.574Z,-3.35
2022-12-15T00:48:53.551Z,-3.40
2022-12-15T00:49:53.567Z,-3.46
2022-12-15T00:50:53.541Z,-3.51
2022-12-15T00:51:53.524Z,-3.51
2022-12-15T00:52:53.496Z,-3.48
2022-12-15T00:53:53.486Z,-3.35
2022-12-15T00:54:53.477Z,-3.51
2022-12-15T00:55:53.468Z,-3.40
2022-12-15T00:56:53.459Z,-3.40
2022-12-15T00:57:53.434Z,-3.41
2022-12-15T00:58:53.425Z,-3.38
2022-12-15T00:59:53.421Z,-3.44
2022-12-15T01:00:53.406Z,-3.40
2022-12-15T01:01:53.498Z,-3.38
2022-12-15T01:02:53.589Z,-3.46
2022-12-15T01:03:53.463Z,-3.48
2022-12-15T01:04:53.348Z,-3.46
2022-12-15T01:05:53.334Z,-3.44
2022-12-15T01:06:53.326Z,-3.38
2022-12-15T01:07:53.317Z,-3.44
2022-12-15T01:08:53.305Z,-3.38
2022-12-15T01:09:53.278Z,-3.40
2022-12-15T01:10:53.278Z,-3.52
2022-12-15T01:11:53.261Z,-3.51
2022-12-15T01:12:53.242Z,-3.45
2022-12-15T01:13:53.225Z,-3.41
2022-12-15T01:14:53.208Z,-3.48
2022-12-15T01:15:53.277Z,-3.55
2022-12-15T01:16:53.185Z,-3.48
2022-12-15T01:17:53.176Z,-3.45
2022-12-15T01:18:53.158Z,-3.55
2022-12-15T01:19:53.177Z,-3.45
2022-12-15T01:20:53.135Z,-3.44
2022-12-15T01:21:53.127Z,-3.51
2022-12-15T01:22:53.121Z,-3.48
2022-12-15T01:23:53.098Z,-3.49
2022-12-15T01:24:53.098Z,-3.52
2022-12-15T01:25:53.059Z,-3.41
2022-12-15T01:26:53.053Z,-3.46
2022-12-15T01:27:53.045Z,-3.41
2022-12-15T01:28:53.011Z,-3.46
2022-12-15T01:29:53.003Z,-3.48
2022-12-15T01:30:53.007Z,-3.37
2022-12-15T01:31:53.080Z,-3.46
2022-12-15T01:32:52.964Z,-3.48
2022-12-15T01:33:52.950Z,-3.48
2022-12-15T01:34:52.937Z,-3.46
2022-12-15T01:35:52.927Z,-3.45
2022-12-15T01:36:52.921Z,-3.40
2022-12-15T01:37:52.909Z,-3.44
2022-12-15T01:38:54.500Z,-3.48
2022-12-15T01:39:52.949Z,-3.45
2022-12-15T01:40:52.859Z,-3.44
2022-12-15T01:41:52.873Z,-3.46
2022-12-15T01:42:52.831Z,-3.44
2022-12-15T01:43:52.828Z,-3.44
2022-12-15T01:44:52.804Z,-3.48
2022-12-15T01:45:52.793Z,-3.45
2022-12-15T01:46:52.877Z,-3.49
2022-12-15T01:47:52.775Z,-3.48
2022-12-15T01:48:52.803Z,-3.58
2022-12-15T01:49:52.742Z,-3.46
2022-12-15T01:50:52.738Z,-3.48
2022-12-15T01:51:52.725Z,-3.48
2022-12-15T01:52:52.714Z,-3.48
2022-12-15T01:53:52.689Z,-3.52
2022-12-15T01:54:52.686Z,-3.55
2022-12-15T01:55:52.655Z,-3.55
2022-12-15T01:56:52.642Z,-3.59
2022-12-15T01:57:52.648Z,-3.56
2022-12-15T01:58:52.619Z,-3.59
2022-12-15T01:59:52.610Z,-3.64
2022-12-15T02:00:52.648Z,-3.64
2022-12-15T02:01:52.691Z,-3.54
2022-12-15T02:02:52.667Z,-3.63
2022-12-15T02:03:52.581Z,-3.63
2022-12-15T02:04:52.535Z,-3.64
2022-12-15T02:05:52.535Z,-3.69
2022-12-15T02:06:52.522Z,-3.66
2022-12-15T02:07:52.512Z,-3.58
2022-12-15T02:08:52.491Z,-3.59
2022-12-15T02:09:52.473Z,-3.72
2022-12-15T02:10:52.450Z,-3.64
2022-12-15T02:11:52.467Z,-3.66
2022-12-15T02:12:52.461Z,-3.66
2022-12-15T02:13:52.452Z,-3.66
2022-12-15T02:14:52.417Z,-3.66
2022-12-15T02:15:52.487Z,-3.69
2022-12-15T02:16:52.377Z,-3.66
2022-12-15T02:17:52.368Z,-3.69
2022-12-15T02:18:52.377Z,-3.58
2022-12-15T02:19:52.348Z,-3.72
2022-12-15T02:20:52.317Z,-3.69
2022-12-15T02:21:52.374Z,-3.67
2022-12-15T02:22:52.294Z,-3.61
2022-12-15T02:23:52.329Z,-3.74
2022-12-15T02:24:52.265Z,-3.66
2022-12-15T02:25:52.263Z,-3.64
2022-12-15T02:26:52.245Z,-3.63
2022-12-15T02:27:52.233Z,-3.66
2022-12-15T02:28:52.212Z,-3.66
2022-12-15T02:29:52.207Z,-3.64
2022-12-15T02:30:52.188Z,-3.66
2022-12-15T02:31:52.321Z,-3.58
2022-12-15T02:32:52.171Z,-3.64
2022-12-15T02:33:52.144Z,-3.58
2022-12-15T02:34:52.161Z,-3.59
2022-12-15T02:35:52.114Z,-3.66
2022-12-15T02:36:52.101Z,-3.54
2022-12-15T02:37:52.096Z,-3.66
2022-12-15T02:38:52.077Z,-3.66
2022-12-15T02:39:52.103Z,-3.66
2022-12-15T02:40:52.055Z,-3.69
2022-12-15T02:41:52.046Z,-3.66
2022-12-15T02:42:52.039Z,-3.66
2022-12-15T02:43:52.016Z,-3.66
2022-12-15T02:44:51.997Z,-3.67
2022-12-15T02:45:52.034Z,-3.67
2022-12-15T02:46:51.968Z,-3.70
2022-12-15T02:47:51.974Z,-3.66
2022-12-15T02:48:51.964Z,-3.64
2022-12-15T02:49:51.933Z,-3.70
2022-12-15T02:50:51.917Z,-3.67
2022-12-15T02:51:51.892Z,-3.77
2022-12-15T02:52:51.896Z,-3.74
2022-12-15T02:53:51.871Z,-3.70
2022-12-15T02:54:51.884Z,-3.72
2022-12-15T02:55:51.845Z,-3.66
2022-12-15T02:56:51.829Z,-3.66
2022-12-15T02:57:51.832Z,-3.63
2022-12-15T02:58:51.815Z,-3.63
2022-12-15T02:59:51.800Z,-3.64
2022-12-15T03:00:51.830Z,-3.64
2022-12-15T03:01:52.083Z,-3.69
2022-12-15T03:02:51.907Z,-3.78
2022-12-15T03:03:51.754Z,-3.69
2022-12-15T03:04:51.727Z,-3.78
2022-12-15T03:05:51.715Z,-3.78
2022-12-15T03:06:55.957Z,-3.70
2022-12-15T03:07:51.685Z,-3.85
2022-12-15T03:08:51.676Z,-3.77
2022-12-15T03:09:51.696Z,-3.83
2022-12-15T03:10:51.649Z,-3.80
2022-12-15T03:11:51.646Z,-3.82
2022-12-15T03:12:51.619Z,-3.88
2022-12-15T03:13:51.596Z,-3.92
2022-12-15T03:14:51.581Z,-3.88
2022-12-15T03:15:51.592Z,-3.93
2022-12-15T03:16:51.590Z,-3.89
2022-12-15T03:17:51.549Z,-4.02
2022-12-15T03:18:51.534Z,-3.89
2022-12-15T03:19:51.517Z,-3.95
2022-12-15T03:20:51.515Z,-3.96
2022-12-15T03:21:51.493Z,-3.92
2022-12-15T03:22:51.479Z,-4.03
2022-12-15T03:23:51.476Z,-4.02
2022-12-15T03:24:51.448Z,-3.99
2022-12-15T03:25:51.436Z,-3.98
2022-12-15T03:26:51.417Z,-3.98
2022-12-15T03:27:51.419Z,-3.93
2022-12-15T03:28:51.390Z,-3.96
2022-12-15T03:29:51.376Z,-3.96
2022-12-15T03:30:51.378Z,-3.98
2022-12-15T03:31:51.418Z,-3.96
2022-12-15T03:32:51.356Z,-3.93
2022-12-15T03:33:51.343Z,-4.02
2022-12-15T03:34:51.320Z,-3.92
2022-12-15T03:35:51.304Z,-3.95
2022-12-15T03:36:51.286Z,-3.92
2022-12-15T03:37:51.289Z,-3.93
2022-12-15T03:38:51.260Z,-3.92
2022-12-15T03:39:51.240Z,-3.95
2022-12-15T03:40:51.234Z,-3.91
2022-12-15T03:41:51.217Z,-3.89
2022-12-15T03:42:51.214Z,-3.86
2022-12-15T03:43:51.218Z,-3.91
2022-12-15T03:44:51.182Z,-3.85
2022-12-15T03:45:51.201Z,-3.91
2022-12-15T03:46:51.144Z,-3.82
2022-12-15T03:47:51.155Z,-3.85
2022-12-15T03:48:51.163Z,-3.89
2022-12-15T03:49:51.107Z,-3.91
2022-12-15T03:50:51.101Z,-3.89
2022-12-15T03:51:51.074Z,-3.83
2022-12-15T03:52:51.077Z,-3.91
2022-12-15T03:53:51.070Z,-3.83
2022-12-15T03:54:51.071Z,-3.86
2022-12-15T03:55:51.017Z,-3.89
2022-12-15T03:56:51.014Z,-3.86
2022-12-15T03:57:51.009Z,-3.89
2022-12-15T03:58:50.984Z,-3.86
2022-12-15T03:59:50.974Z,-3.89
2022-12-15T04:00:50.961Z,-3.95
2022-12-15T04:01:51.092Z,-3.92
2022-12-15T04:02:51.127Z,-3.92
2022-12-15T04:03:54.311Z,-3.92
2022-12-15T04:04:50.902Z,-3.86
2022-12-15T04:05:50.888Z,-3.86
2022-12-15T04:06:50.890Z,-3.89
2022-12-15T04:07:50.859Z,-3.91
2022-12-15T04:08:50.865Z,-3.89
2022-12-15T04:09:50.826Z,-3.85
2022-12-15T04:10:50.813Z,-3.89
2022-12-15T04:11:50.810Z,-3.88
2022-12-15T04:12:50.807Z,-3.85
2022-12-15T04:13:50.787Z,-3.91
2022-12-15T04:14:50.776Z,-3.95
2022-12-15T04:15:50.756Z,-3.93
2022-12-15T04:16:50.784Z,-4.07
2022-12-15T04:17:50.722Z,-3.99
2022-12-15T04:18:50.707Z,-3.99
2022-12-15T04:19:50.692Z,-4.02
2022-12-15T04:20:50.676Z,-4.02
2022-12-15T04:21:50.664Z,-4.10
2022-12-15T04:22:50.655Z,-4.04
2022-12-15T04:23:50.647Z,-4.07
2022-12-15T04:24:50.634Z,-4.09
2022-12-15T04:25:50.621Z,-4.02
2022-12-15T04:26:50.633Z,-4.02
2022-12-15T04:27:50.584Z,-4.06
2022-12-15T04:28:50.620Z,-4.04
2022-12-15T04:29:50.558Z,-4.03
2022-12-15T04:30:50.586Z,-4.14
2022-12-15T04:31:50.538Z,-4.06
2022-12-15T04:32:50.550Z,-4.07
2022-12-15T04:33:50.495Z,-4.17
2022-12-15T04:34:50.488Z,-4.16
2022-12-15T04:35:50.512Z,-4.20
2022-12-15T04:36:50.476Z,-4.20
2022-12-15T04:37:50.444Z,-4.30
2022-12-15T04:38:50.853Z,-4.24
2022-12-15T04:39:50.439Z,-4.22
2022-12-15T04:40:50.406Z,-4.24
2022-12-15T04:41:50.393Z,-4.34
2022-12-15T04:42:50.416Z,-4.38
2022-12-15T04:43:50.362Z,-4.39
2022-12-15T04:44:50.445Z,-4.46
2022-12-15T04:45:50.382Z,-4.61
2022-12-15T04:46:50.317Z,-4.63
2022-12-15T04:47:50.314Z,-4.73
2022-12-15T04:48:50.298Z,-4.67
2022-12-15T04:49:50.272Z,-4.84
2022-12-15T04:50:50.265Z,-4.78
2022-12-15T04:51:50.246Z,-4.87
2022-12-15T04:52:50.272Z,-4.95
2022-12-15T04:53:50.228Z,-4.91
2022-12-15T04:54:50.244Z,-4.99
2022-12-15T04:55:50.202Z,-5.02
2022-12-15T04:56:50.195Z,-5.18
2022-12-15T04:57:50.167Z,-5.10
2022-12-15T04:58:50.150Z,-5.13
2022-12-15T04:59:50.128Z,-5.10
2022-12-15T05:00:50.129Z,-5.14
2022-12-15T05:01:50.238Z,-5.13
2022-12-15T05:02:50.130Z,-5.09
2022-12-15T05:03:50.092Z,-5.22
2022-12-15T05:04:50.133Z,-5.13
2022-12-15T05:05:50.056Z,-5.14
2022-12-15T05:06:50.042Z,-5.13
2022-12-15T05:07:50.033Z,-5.08
2022-12-15T05:08:50.303Z,-4.99
2022-12-15T05:09:49.993Z,-5.08
2022-12-15T05:10:50.000Z,-5.08
2022-12-15T05:11:49.973Z,-5.06
2022-12-15T05:12:49.963Z,-5.18
2022-12-15T05:13:49.932Z,-5.14
2022-12-15T05:14:49.917Z,-5.10
2022-12-15T05:15:49.969Z,-5.22
2022-12-15T05:16:49.915Z,-5.17
2022-12-15T05:17:49.877Z,-5.22
2022-12-15T05:18:49.862Z,-5.25
2022-12-15T05:19:49.855Z,-5.25
2022-12-15T05:20:50.149Z,-5.31
2022-12-15T05:21:49.853Z,-5.22
2022-12-15T05:22:49.825Z,-5.28
2022-12-15T05:23:49.787Z,-5.28
2022-12-15T05:24:49.779Z,-5.28
2022-12-15T05:25:49.782Z,-5.31
2022-12-15T05:26:52.964Z,-5.36
2022-12-15T05:27:49.758Z,-5.33
2022-12-15T05:28:49.715Z,-5.29
2022-12-15T05:29:49.700Z,-5.28
2022-12-15T05:30:49.766Z,-5.25
2022-12-15T05:31:49.672Z,-5.33
2022-12-15T05:32:49.905Z,-5.24
2022-12-15T05:33:49.643Z,-5.13
2022-12-15T05:34:49.645Z,-5.03
2022-12-15T05:35:49.712Z,-5.10
2022-12-15T05:36:49.610Z,-5.09
2022-12-15T05:37:49.593Z,-5.09
2022-12-15T05:38:50.382Z,-5.09
2022-12-15T05:39:49.575Z,-5.22
2022-12-15T05:40:49.563Z,-5.05
2022-12-15T05:41:49.531Z,-5.08
2022-12-15T05:42:50.052Z,-5.05
2022-12-15T05:43:49.510Z,-4.96
2022-12-15T05:44:49.862Z,-4.92
2022-12-15T05:45:49.574Z,-4.88
2022-12-15T05:46:49.532Z,-4.88
2022-12-15T05:47:49.460Z,-4.84
2022-12-15T05:48:49.450Z,-4.81
2022-12-15T05:49:49.445Z,-4.95
2022-12-15T05:50:49.678Z,-4.82
2022-12-15T05:51:49.390Z,-4.82
2022-12-15T05:52:49.745Z,-4.84
2022-12-15T05:53:49.357Z,-4.85
2022-12-15T05:54:49.388Z,-4.85
2022-12-15T05:55:49.336Z,-4.77
2022-12-15T05:56:50.071Z,-4.75
2022-12-15T05:57:49.313Z,-4.77
2022-12-15T05:58:49.291Z,-4.73
2022-12-15T05:59:49.283Z,-4.71
2022-12-15T06:00:49.326Z,-4.78
2022-12-15T06:01:49.327Z,-4.77
2022-12-15T06:02:49.910Z,-4.88
2022-12-15T06:03:49.224Z,-4.79
2022-12-15T06:04:49.271Z,-4.79
2022-12-15T06:05:54.651Z,-4.81
2022-12-15T06:06:49.186Z,-4.77
2022-12-15T06:07:49.168Z,-4.78
2022-12-15T06:08:49.953Z,-4.75
2022-12-15T06:09:49.134Z,-4.81
2022-12-15T06:10:49.160Z,-4.84
2022-12-15T06:11:49.104Z,-4.84
2022-12-15T06:12:49.091Z,-4.82
2022-12-15T06:13:49.087Z,-4.88
2022-12-15T06:14:49.982Z,-4.88
2022-12-15T06:15:49.085Z,-4.82
2022-12-15T06:16:50.776Z,-4.78
2022-12-15T06:17:49.758Z,-4.78
2022-12-15T06:18:49.912Z,-4.82
2022-12-15T06:19:49.005Z,-4.81
2022-12-15T06:20:49.666Z,-4.85
2022-12-15T06:21:48.959Z,-4.81
2022-12-15T06:22:50.168Z,-4.89
2022-12-15T06:23:48.942Z,-5.00
2022-12-15T06:24:48.948Z,-5.00
2022-12-15T06:25:48.904Z,-4.99
2022-12-15T06:26:49.735Z,-4.99
2022-12-15T06:27:48.888Z,-5.13
2022-12-15T06:28:48.866Z,-5.00
2022-12-15T06:29:48.859Z,-5.05
2022-12-15T06:30:48.860Z,-5.03
2022-12-15T06:31:48.885Z,-5.06
2022-12-15T06:32:49.901Z,-5.05
2022-12-15T06:33:48.799Z,-5.03
2022-12-15T06:34:48.803Z,-5.02
2022-12-15T06:35:48.756Z,-5.17
2022-12-15T06:36:48.755Z,-5.14
2022-12-15T06:37:48.730Z,-5.18
2022-12-15T06:38:49.838Z,-5.21
2022-12-15T06:39:48.762Z,-5.05
2022-12-15T06:40:48.698Z,-5.08
2022-12-15T06:41:48.676Z,-5.17
2022-12-15T06:42:48.662Z,-5.03
2022-12-15T06:43:48.668Z,-5.02
2022-12-15T06:44:48.659Z,-5.03
2022-12-15T06:45:49.928Z,-5.09
2022-12-15T06:46:48.697Z,-5.02
2022-12-15T06:47:48.600Z,-5.02
2022-12-15T06:48:48.608Z,-5.03
2022-12-15T06:49:48.646Z,-5.06
2022-12-15T06:50:50.359Z,-5.06
2022-12-15T06:51:48.540Z,-5.14
2022-12-15T06:52:48.519Z,-5.08
2022-12-15T06:53:48.542Z,-5.18
2022-12-15T06:54:48.513Z,-5.19
2022-12-15T06:55:48.527Z,-5.22
2022-12-15T06:56:49.819Z,-5.24
2022-12-15T06:57:48.472Z,-5.18
2022-12-15T06:58:48.446Z,-5.18
2022-12-15T06:59:48.451Z,-5.18
2022-12-15T07:00:48.408Z,-5.28
2022-12-15T07:01:48.604Z,-5.24
2022-12-15T07:02:50.323Z,-5.25
2022-12-15T07:03:48.694Z,-5.17
2022-12-15T07:04:48.346Z,-5.19
2022-12-15T07:05:48.336Z,-5.17
2022-12-15T07:06:48.337Z,-5.17
2022-12-15T07:07:48.311Z,-5.17
2022-12-15T07:08:48.346Z,-5.18
2022-12-15T07:09:48.278Z,-5.18
2022-12-15T07:10:48.258Z,-5.17
2022-12-15T07:11:48.260Z,-5.13
2022-12-15T07:12:48.235Z,-5.14
2022-12-15T07:13:48.230Z,-5.13
2022-12-15T07:14:53.201Z,-5.22
2022-12-15T07:15:48.210Z,-5.18
2022-12-15T07:16:48.289Z,-5.25
2022-12-15T07:17:48.177Z,-5.14
2022-12-15T07:18:48.158Z,-5.10
2022-12-15T07:19:48.136Z,-5.03
2022-12-15T07:20:49.863Z,-5.02
2022-12-15T07:21:48.110Z,-5.00
2022-12-15T07:22:48.090Z,-5.03
2022-12-15T07:23:57.069Z,-5.03
2022-12-15T07:24:48.073Z,-5.00
2022-12-15T07:25:48.048Z,-5.08
2022-12-15T07:26:48.921Z,-5.09
2022-12-15T07:27:48.031Z,-5.09
2022-12-15T07:28:47.994Z,-5.13
2022-12-15T07:29:47.996Z,-5.14
2022-12-15T07:30:47.976Z,-5.14
2022-12-15T07:31:48.083Z,-5.17
2022-12-15T07:32:50.028Z,-5.13
2022-12-15T07:33:47.935Z,-5.22
2022-12-15T07:34:47.913Z,-5.13
2022-12-15T07:35:47.908Z,-5.18
2022-12-15T07:36:52.114Z,-5.08
2022-12-15T07:37:47.894Z,-5.05
2022-12-15T07:38:50.732Z,-5.18
2022-12-15T07:39:47.847Z,-5.13
2022-12-15T07:40:47.827Z,-5.10
2022-12-15T07:41:47.839Z,-5.13
2022-12-15T07:42:47.804Z,-5.09
2022-12-15T07:43:48.172Z,-5.05
2022-12-15T07:44:49.979Z,-5.08
2022-12-15T07:45:51.453Z,-5.02
2022-12-15T07:46:47.802Z,-5.08
2022-12-15T07:47:47.744Z,-5.03
2022-12-15T07:48:50.750Z,-5.10
2022-12-15T07:49:47.716Z,-5.06
2022-12-15T07:50:47.704Z,-4.96
2022-12-15T07:51:47.690Z,-5.00
2022-12-15T07:52:47.668Z,-5.06
2022-12-15T07:53:47.690Z,-5.00
2022-12-15T07:54:47.634Z,-5.05
2022-12-15T07:56:06.324Z,-5.17
2022-12-15T07:56:50.540Z,-5.09
2022-12-15T07:57:47.593Z,-5.19
2022-12-15T07:58:47.580Z,-5.18
2022-12-15T07:59:47.565Z,-5.10
2022-12-15T08:00:49.060Z,-5.00
2022-12-15T08:01:47.765Z,-5.02
2022-12-15T08:02:47.713Z,-5.09
2022-12-15T08:03:47.587Z,-5.06
2022-12-15T08:04:48.106Z,-5.03
2022-12-15T08:05:47.483Z,-5.02
2022-12-15T08:06:47.471Z,-5.06
2022-12-15T08:07:54.671Z,-5.14
2022-12-15T08:09:51.460Z,-5.19
2022-12-15T08:10:51.418Z,-5.18
2022-12-15T08:12:55.427Z,-5.24
2022-12-15T08:14:04.510Z,-5.19
2022-12-15T08:15:59.424Z,-5.10
2022-12-15T08:16:59.390Z,-5.27
2022-12-15T08:18:52.221Z,-5.35
2022-12-15T08:19:55.748Z,-5.39
2022-12-15T08:21:56.236Z,-5.38
2022-12-15T08:22:56.177Z,-5.40
2022-12-15T08:25:00.176Z,-5.40
2022-12-15T08:26:00.116Z,-5.36
2022-12-15T08:27:53.037Z,-5.40
2022-12-15T08:28:52.989Z,-5.31
2022-12-15T08:29:53.163Z,-5.35
2022-12-15T08:30:52.981Z,-5.35
2022-12-15T08:31:53.175Z,-5.33
2022-12-15T08:32:52.932Z,-5.33
2022-12-15T08:33:52.921Z,-5.22
2022-12-15T08:34:52.900Z,-5.33
2022-12-15T08:35:57.215Z,-5.36
2022-12-15T08:36:52.875Z,-5.27
2022-12-15T08:37:52.882Z,-5.17
2022-12-15T08:38:52.860Z,-5.18
2022-12-15T08:39:52.853Z,-5.21
2022-12-15T08:40:52.840Z,-5.22
2022-12-15T08:41:52.826Z,-5.24
2022-12-15T08:42:52.790Z,-5.17
2022-12-15T08:43:52.788Z,-5.24
2022-12-15T08:44:52.764Z,-5.31
2022-12-15T08:45:52.813Z,-5.36
2022-12-15T08:46:52.747Z,-5.35
2022-12-15T08:47:52.740Z,-5.29
2022-12-15T08:48:52.704Z,-5.21
2022-12-15T08:49:52.702Z,-5.14
2022-12-15T08:50:52.675Z,-4.98
2022-12-15T08:51:52.674Z,-4.79
2022-12-15T08:53:21.417Z,-4.59
2022-12-15T08:53:52.653Z,-4.27
2022-12-15T08:54:52.645Z,-4.09
2022-12-15T08:55:52.614Z,-3.77
2022-12-15T08:56:52.603Z,-3.48
2022-12-15T08:57:52.595Z,-3.31
2022-12-15T08:58:52.578Z,-3.20
2022-12-15T08:59:52.558Z,-3.01
2022-12-15T09:00:52.623Z,-2.71
2022-12-15T09:01:52.705Z,-2.52
2022-12-15T09:02:52.626Z,-2.18
2022-12-15T09:03:52.686Z,-2.12
2022-12-15T09:04:52.548Z,-1.95
2022-12-15T09:05:52.494Z,-1.77
2022-12-15T09:06:52.471Z,-1.58
2022-12-15T09:07:52.461Z,-1.38
2022-12-15T09:08:52.468Z,-1.23
2022-12-15T09:09:52.452Z,-1.32
2022-12-15T09:10:52.761Z,-1.23
2022-12-15T09:11:52.437Z,-1.26
2022-12-15T09:12:52.424Z,-1.26
2022-12-15T09:13:52.416Z,-1.20
2022-12-15T09:14:52.393Z,-1.30
2022-12-15T09:16:09.849Z,-1.38
2022-12-15T09:16:52.431Z,-1.26
2022-12-15T09:17:52.358Z,-1.19
2022-12-15T09:18:52.373Z,-1.25
2022-12-15T09:19:52.364Z,-1.27
2022-12-15T09:20:52.334Z,-1.40
2022-12-15T09:21:52.325Z,-1.50
2022-12-15T09:22:52.341Z,-1.59
2022-12-15T09:23:52.375Z,-1.74
2022-12-15T09:24:52.291Z,-1.66
2022-12-15T09:25:52.312Z,-1.74
2022-12-15T09:26:52.270Z,-1.77
2022-12-15T09:27:52.270Z,-1.77
2022-12-15T09:28:52.251Z,-1.76
2022-12-15T09:29:52.247Z,-1.71
2022-12-15T09:30:52.318Z,-1.56
2022-12-15T09:31:52.263Z,-1.58
2022-12-15T09:32:53.055Z,-1.53
2022-12-15T09:33:52.228Z,-1.47
2022-12-15T09:34:52.187Z,-1.51
2022-12-15T09:35:52.189Z,-1.43
2022-12-15T09:36:52.169Z,-1.44
2022-12-15T09:37:52.173Z,-1.35
2022-12-15T09:38:52.158Z,-1.33
2022-12-15T09:39:52.141Z,-1.40
2022-12-15T09:40:52.205Z,-1.44
2022-12-15T09:41:52.116Z,-1.40
2022-12-15T09:43:04.906Z,-1.38
2022-12-15T09:43:52.499Z,-1.29
2022-12-15T09:44:52.096Z,-1.23
2022-12-15T09:45:52.139Z,-1.23
2022-12-15T09:46:52.067Z,-1.19
2022-12-15T09:47:52.086Z,-0.94
2022-12-15T09:48:52.045Z,-0.89
2022-12-15T09:49:52.042Z,-0.72
2022-12-15T09:50:52.025Z,-0.64
2022-12-15T09:51:52.042Z,-0.67
2022-12-15T09:52:52.007Z,-0.53
2022-12-15T09:53:55.177Z,-0.62
2022-12-15T09:54:52.012Z,-0.75
2022-12-15T09:55:51.990Z,-0.90
2022-12-15T09:56:51.980Z,-0.94
2022-12-15T09:57:51.969Z,-1.12
2022-12-15T09:58:51.986Z,-1.15
2022-12-15T09:59:51.985Z,-1.22
2022-12-15T10:00:52.611Z,-1.15
2022-12-15T10:01:51.990Z,-1.22
2022-12-15T10:02:52.092Z,-1.38
2022-12-15T10:03:52.051Z,-1.23
2022-12-15T10:04:51.895Z,-1.30
2022-12-15T10:06:14.714Z,-1.43
2022-12-15T10:06:51.880Z,-1.54
2022-12-15T10:07:51.882Z,-1.56
2022-12-15T10:08:51.947Z,-1.69
2022-12-15T10:09:51.854Z,-1.77
2022-12-15T10:10:51.841Z,-1.86
2022-12-15T10:11:51.852Z,-1.89
2022-12-15T10:13:01.157Z,-1.95
2022-12-15T10:13:51.820Z,-1.90
2022-12-15T10:14:51.810Z,-1.94
2022-12-15T10:15:51.839Z,-1.97
2022-12-15T10:16:51.799Z,-1.98
2022-12-15T10:17:51.817Z,-1.98
2022-12-15T10:18:54.781Z,-2.10
2022-12-15T10:19:51.761Z,-2.04
2022-12-15T10:20:51.742Z,-2.08
2022-12-15T10:21:51.735Z,-2.22
2022-12-15T10:22:51.717Z,-2.19
2022-12-15T10:23:51.859Z,-2.21
2022-12-15T10:25:51.708Z,-2.28
2022-12-15T10:26:51.685Z,-2.28
2022-12-15T10:27:51.686Z,-2.37
2022-12-15T10:28:51.655Z,-2.48
2022-12-15T10:29:51.665Z,-2.44
2022-12-15T10:30:51.679Z,-2.47
2022-12-15T10:31:51.624Z,-2.50
2022-12-15T10:32:51.766Z,-2.52
2022-12-15T10:33:51.597Z,-2.55
2022-12-15T10:34:51.652Z,-2.59
2022-12-15T10:35:51.572Z,-2.59
2022-12-15T10:36:51.566Z,-2.56
2022-12-15T10:37:51.561Z,-2.56
2022-12-15T10:38:51.546Z,-2.59
2022-12-15T10:39:51.535Z,-2.47
2022-12-15T10:40:51.544Z,-2.48
2022-12-15T10:41:51.503Z,-2.48
2022-12-15T10:42:51.510Z,-2.42
2022-12-15T10:43:51.489Z,-2.30
2022-12-15T10:44:51.471Z,-2.23
2022-12-15T10:45:51.520Z,-2.23
2022-12-15T10:46:51.453Z,-2.21
2022-12-15T10:47:51.443Z,-2.35
2022-12-15T10:48:51.407Z,-2.21
2022-12-15T10:49:51.408Z,-2.22
2022-12-15T10:50:51.404Z,-2.26
2022-12-15T10:51:51.378Z,-2.22
2022-12-15T10:52:51.388Z,-2.23
2022-12-15T10:53:51.373Z,-2.28
2022-12-15T10:54:51.366Z,-2.23
2022-12-15T10:55:51.351Z,-2.28
2022-12-15T10:57:01.027Z,-2.30
2022-12-15T10:58:27.047Z,-2.28
2022-12-15T10:58:51.324Z,-2.28
2022-12-15T10:59:51.294Z,-2.32
2022-12-15T11:00:51.315Z,-2.30
2022-12-15T11:01:51.467Z,-2.28
2022-12-15T11:02:51.344Z,-2.30
2022-12-15T11:03:51.398Z,-2.23
2022-12-15T11:04:51.225Z,-2.32
2022-12-15T11:05:51.208Z,-2.22
2022-12-15T11:06:51.198Z,-2.21
2022-12-15T11:07:51.182Z,-2.19
2022-12-15T11:08:51.217Z,-2.25
2022-12-15T11:09:51.167Z,-2.16
2022-12-15T11:10:51.158Z,-2.30
2022-12-15T11:11:51.150Z,-2.21
2022-12-15T11:12:51.146Z,-2.22
2022-12-15T11:13:51.106Z,-2.25
2022-12-15T11:14:51.437Z,-2.30
2022-12-15T11:15:51.251Z,-2.16
2022-12-15T11:16:51.102Z,-2.25
2022-12-15T11:17:51.057Z,-2.22
2022-12-15T11:18:51.047Z,-2.25
2022-12-15T11:19:54.009Z,-2.19
2022-12-15T11:20:51.033Z,-2.15
2022-12-15T11:21:51.049Z,-2.19
2022-12-15T11:22:50.989Z,-2.34
2022-12-15T11:23:51.002Z,-2.30
2022-12-15T11:24:50.971Z,-2.25
2022-12-15T11:25:51.246Z,-2.35
2022-12-15T11:26:50.969Z,-2.38
2022-12-15T11:27:50.998Z,-2.41
2022-12-15T11:28:50.926Z,-2.41
2022-12-15T11:29:50.904Z,-2.45
2022-12-15T11:30:50.956Z,-2.37
2022-12-15T11:31:50.904Z,-2.40
2022-12-15T11:32:50.880Z,-2.30
2022-12-15T11:33:50.858Z,-2.26
2022-12-15T11:34:50.862Z,-2.26
2022-12-15T11:35:50.828Z,-2.34
2022-12-15T11:36:50.843Z,-2.34
2022-12-15T11:37:50.904Z,-2.30
2022-12-15T11:38:51.008Z,-2.23
2022-12-15T11:39:50.804Z,-2.22
2022-12-15T11:40:50.778Z,-2.16
2022-12-15T11:41:50.893Z,-2.12
2022-12-15T11:42:50.813Z,-2.08
2022-12-15T11:43:50.855Z,-2.10
2022-12-15T11:44:50.718Z,-2.08
2022-12-15T11:45:50.707Z,-2.01
2022-12-15T11:46:50.705Z,-2.02
2022-12-15T11:47:50.995Z,-1.94
2022-12-15T11:48:50.675Z,-1.92
2022-12-15T11:49:50.660Z,-1.87
2022-12-15T11:50:51.058Z,-1.97
2022-12-15T11:51:50.644Z,-1.92
2022-12-15T11:52:50.723Z,-1.87
2022-12-15T11:53:50.649Z,-1.89
2022-12-15T11:54:50.622Z,-1.84
2022-12-15T11:55:50.589Z,-1.84
2022-12-15T11:56:50.621Z,-1.82
2022-12-15T11:57:50.616Z,-1.79
2022-12-15T11:58:50.567Z,-1.74
2022-12-15T11:59:50.541Z,-1.71
2022-12-15T12:00:50.528Z,-1.66
2022-12-15T12:01:57.102Z,-1.66
2022-12-15T12:02:50.567Z,-1.69
2022-12-15T12:03:50.525Z,-1.59
2022-12-15T12:04:50.838Z,-1.53
2022-12-15T12:05:50.471Z,-1.53
2022-12-15T12:06:50.442Z,-1.51
2022-12-15T12:07:50.451Z,-1.41
2022-12-15T12:09:50.434Z,-1.46
2022-12-15T12:10:50.461Z,-1.44
2022-12-15T12:11:50.439Z,-1.32
2022-12-15T12:12:50.605Z,-1.35
2022-12-15T12:13:50.452Z,-1.29
2022-12-15T12:14:50.741Z,-1.30
2022-12-15T12:15:50.357Z,-1.23
2022-12-15T12:16:50.342Z,-1.30
2022-12-15T12:17:50.324Z,-1.23
2022-12-15T12:18:50.662Z,-1.23
2022-12-15T12:19:50.782Z,-1.29
2022-12-15T12:20:50.394Z,-1.29
2022-12-15T12:21:51.086Z,-1.17
2022-12-15T12:22:50.666Z,-1.15
2022-12-15T12:23:50.249Z,-1.19
2022-12-15T12:24:50.811Z,-1.19
2022-12-15T12:25:50.241Z,-1.20
2022-12-15T12:26:50.324Z,-1.15
2022-12-15T12:27:50.284Z,-1.12
2022-12-15T12:28:50.318Z,-1.07
2022-12-15T12:29:50.177Z,-1.09
2022-12-15T12:30:50.412Z,-1.08
2022-12-15T12:31:50.835Z,-1.11
2022-12-15T12:32:50.415Z,-1.11
2022-12-15T12:33:50.168Z,-1.11
2022-12-15T12:34:51.125Z,-1.05
2022-12-15T12:35:50.116Z,-1.08
2022-12-15T12:36:50.113Z,-0.96
2022-12-15T12:37:50.133Z,-1.04
2022-12-15T12:38:50.832Z,-0.97
2022-12-15T12:39:50.056Z,-0.96
2022-12-15T12:40:50.317Z,-1.01
2022-12-15T12:41:50.030Z,-0.91
2022-12-15T12:42:50.044Z,-0.99
2022-12-15T12:43:50.348Z,-0.96
2022-12-15T12:44:49.996Z,-0.91
2022-12-15T12:45:50.206Z,-1.01
2022-12-15T12:46:50.617Z,-0.96
2022-12-15T12:47:50.014Z,-0.96
2022-12-15T12:48:49.958Z,-0.93
2022-12-15T12:49:50.108Z,-1.04
2022-12-15T12:50:50.657Z,-0.96
2022-12-15T12:51:49.919Z,-1.01
2022-12-15T12:52:49.909Z,-1.07
2022-12-15T12:53:50.384Z,-1.07
2022-12-15T12:54:50.227Z,-1.08
2022-12-15T12:55:49.925Z,-1.04
2022-12-15T12:57:50.074Z,-0.99
2022-12-15T12:58:49.838Z,-0.94
2022-12-15T12:59:49.825Z,-0.96
2022-12-15T13:00:55.204Z,-0.97
2022-12-15T13:01:49.991Z,-0.93
2022-12-15T13:02:50.507Z,-0.94